Time;durP1;ratioP1;P1;durP2;ratioP2;P2;SDS_P1;SDS_P2;PMS_P1;PMS_P2;Temp;Humidity;BMP_temperature;BMP_pressure;BME280_temperature;BME280_humidity;BME280_pressure;Samples;Min_cycle;Max_cycle;Signal;HPM_P1;HPM_P2
2022/11/06 00:00:42;;;;;;;10.90;3.97;;;;;;;-142.75;100.00;77304.59;5098638;28;20023;-67
2022/11/06 00:03:08;;;;;;;10.20;3.80;;;;;;;-142.75;100.00;77300.66;5098552;28;20373;-67
2022/11/06 00:08:30;;;;;;;10.60;3.65;;;;;;;-142.75;100.00;77296.72;5088375;27;20358;-65
2022/11/06 00:10:56;;;;;;;8.95;3.78;;;;;;;-142.75;100.00;77290.81;5089119;28;20723;-66
2022/11/06 00:13:21;;;;;;;11.10;3.40;;;;;;;-142.75;100.00;77288.84;5072902;28;20028;-61
2022/11/06 00:15:46;;;;;;;11.45;3.08;;;;;;;-142.75;100.00;77288.84;5071332;28;20129;-62
2022/11/06 00:18:12;;;;;;;7.65;2.75;;;;;;;-142.75;100.00;77279.00;5065834;28;20507;-63
2022/11/06 00:20:37;;;;;;;8.60;3.30;;;;;;;-142.75;100.00;77279.00;5062993;28;20024;-64
2022/11/06 00:23:02;;;;;;;11.00;3.50;;;;;;;-142.75;100.00;77280.97;5069169;28;20350;-65
2022/11/06 00:25:28;;;;;;;8.93;2.83;;;;;;;-142.75;100.00;77290.81;5087657;28;20641;-62
2022/11/06 00:27:53;;;;;;;5.57;2.80;;;;;;;-142.75;100.00;77288.84;5088796;28;20173;-61
2022/11/06 00:30:19;;;;;;;13.70;3.17;;;;;;;-142.75;100.00;77288.84;5082070;28;20023;-62
2022/11/06 00:32:46;;;;;;;9.15;3.10;;;;;;;-142.75;100.00;77288.84;5063209;28;20301;-65
2022/11/06 00:35:11;;;;;;;10.40;2.92;;;;;;;-142.75;100.00;77282.94;5074462;28;20038;-62
2022/11/06 00:37:37;;;;;;;7.72;3.22;;;;;;;-142.75;100.00;77277.03;5069316;28;20055;-62
2022/11/06 00:40:03;;;;;;;9.57;3.50;;;;;;;-142.75;100.00;77280.97;5069942;28;20023;-63
2022/11/06 00:42:28;;;;;;;6.35;2.80;;;;;;;-142.75;100.00;77271.13;5066997;28;20083;-64
2022/11/06 00:44:54;;;;;;;11.20;3.30;;;;;;;-142.75;100.00;77271.13;5068307;28;20421;-63
2022/11/06 00:47:19;;;;;;;8.25;3.22;;;;;;;-142.75;100.00;77261.28;5065681;28;20481;-66
2022/11/06 00:49:45;;;;;;;14.68;3.25;;;;;;;-142.75;100.00;77267.19;5086154;28;20035;-60
2022/11/06 00:52:10;;;;;;;7.07;2.83;;;;;;;-142.75;100.00;77265.22;5081576;28;20511;-60
2022/11/06 00:54:35;;;;;;;13.60;3.17;;;;;;;-142.75;100.00;77275.06;5085172;28;20031;-62
2022/11/06 00:57:01;;;;;;;11.50;2.65;;;;;;;-142.75;100.00;77267.19;5063725;28;20016;-65
2022/11/06 00:59:26;;;;;;;12.75;3.15;;;;;;;-142.75;100.00;77269.16;5069834;28;20023;-62
2022/11/06 01:01:51;;;;;;;11.05;2.80;;;;;;;-142.75;100.00;77271.13;5064408;28;20482;-64
2022/11/06 01:04:19;;;;;;;12.80;3.10;;;;;;;-142.75;100.00;77269.16;5062672;28;20028;-65
2022/11/06 01:06:47;;;;;;;13.90;2.53;;;;;;;-142.75;100.00;77259.31;5082994;28;20598;-61
2022/11/06 01:09:15;;;;;;;11.35;2.88;;;;;;;-142.75;100.00;77271.13;5079939;28;20362;-62
2022/11/06 01:11:46;;;;;;;9.30;2.83;;;;;;;-142.75;100.00;77261.28;5067469;28;20039;-62
2022/11/06 01:14:13;;;;;;;11.18;3.60;;;;;;;-142.75;100.00;77267.19;5063331;28;20027;-63
2022/11/06 01:16:39;;;;;;;13.90;3.47;;;;;;;-142.75;100.00;77265.22;5064360;28;20024;-61
2022/11/06 01:19:05;;;;;;;9.48;2.97;;;;;;;-142.75;100.00;77263.25;5061532;28;20223;-63
2022/11/06 01:21:34;;;;;;;4.70;2.33;;;;;;;-142.75;100.00;77273.09;5063697;28;20473;-60
2022/11/06 01:24:02;;;;;;;6.70;2.75;;;;;;;-142.75;100.00;77263.25;5080009;28;20039;-61
2022/11/06 01:26:29;;;;;;;10.70;2.67;;;;;;;-142.75;100.00;77263.25;5060896;28;20540;-61
2022/11/06 01:28:55;;;;;;;8.00;2.22;;;;;;;-142.75;100.00;77247.50;5062451;28;20042;-65
2022/11/06 01:31:23;;;;;;;12.40;2.50;;;;;;;-142.75;100.00;77245.53;5085205;28;20040;-62
2022/11/06 01:33:49;;;;;;;11.18;2.78;;;;;;;-142.75;100.00;77257.34;5081263;28;20024;-64
2022/11/06 01:36:16;;;;;;;9.23;2.70;;;;;;;-142.75;100.00;77261.28;5064834;28;20024;-61
2022/11/06 01:38:44;;;;;;;7.30;2.08;;;;;;;-142.75;100.00;77259.31;5071028;28;20710;-63
2022/11/06 01:41:16;;;;;;;4.70;1.98;;;;;;;-142.75;100.00;77247.50;5070270;28;20111;-62
2022/11/06 01:43:59;;;;;;;8.70;3.00;;;;;;;-142.75;100.00;77253.41;5091829;28;20037;-62
2022/11/06 01:46:27;;;;;;;4.63;2.10;;;;;;;-142.75;100.00;77243.56;5068407;28;20036;-62
2022/11/06 01:48:55;;;;;;;6.00;2.05;;;;;;;-142.75;100.00;77243.56;5087912;28;20032;-63
2022/11/06 01:51:23;;;;;;;5.55;2.30;;;;;;;-142.75;100.00;77239.63;5086393;28;20228;-64
2022/11/06 01:53:49;;;;;;;10.57;2.90;;;;;;;-142.75;100.00;77237.66;5074065;28;20159;-65
2022/11/06 01:56:15;;;;;;;6.00;2.30;;;;;;;-142.75;100.00;77251.44;5063169;28;20330;-59
2022/11/06 01:58:44;;;;;;;11.52;2.30;;;;;;;-142.75;100.00;77243.56;5086103;28;20443;-64
2022/11/06 02:01:10;;;;;;;7.68;2.60;;;;;;;-142.75;100.00;77253.41;5070434;28;20024;-63
2022/11/06 02:03:37;;;;;;;8.02;2.45;;;;;;;-142.75;100.00;77245.53;5074223;28;20564;-63
2022/11/06 02:06:03;;;;;;;7.82;2.70;;;;;;;-142.75;100.00;77245.53;5070121;28;20610;-62
2022/11/06 02:08:29;;;;;;;9.68;2.42;;;;;;;-142.75;100.00;77263.25;5071946;28;20326;-64
2022/11/06 02:10:54;;;;;;;6.85;2.95;;;;;;;-142.75;100.00;77255.38;5072097;28;20523;-65
2022/11/06 02:13:31;;;;;;;8.32;2.42;;;;;;;-142.75;100.00;77251.44;5065248;28;20032;-64
2022/11/06 02:15:56;;;;;;;11.25;2.75;;;;;;;-142.75;100.00;77261.28;5071581;28;20024;-64
2022/11/06 02:18:37;;;;;;;8.23;2.47;;;;;;;-142.75;100.00;77251.44;5067664;28;20805;-63
2022/11/06 02:21:44;;;;;;;6.60;2.60;;;;;;;-142.75;100.00;77245.53;5083937;28;20703;-62
2022/11/06 02:24:30;;;;;;;7.57;2.88;;;;;;;-142.75;100.00;77239.63;5066765;28;20040;-61
2022/11/06 02:27:04;;;;;;;6.13;2.35;;;;;;;-142.75;100.00;77247.50;5085802;28;20054;-61
2022/11/06 02:29:40;;;;;;;4.70;2.10;;;;;;;-142.75;100.00;77227.81;5082128;28;20558;-60
2022/11/06 02:32:41;;;;;;;9.60;2.30;;;;;;;-142.75;100.00;77214.03;5072814;28;20146;-61
2022/11/06 02:35:48;;;;;;;10.88;3.15;;;;;;;-142.75;100.00;77214.03;5046469;28;20145;-57
2022/11/06 02:38:21;;;;;;;13.85;3.53;;;;;;;-142.75;100.00;77223.88;5074857;28;20035;-64
2022/11/06 02:40:51;;;;;;;12.40;2.90;;;;;;;-142.75;100.00;77212.06;5069679;28;20041;-64
2022/11/06 02:43:20;;;;;;;5.70;2.28;;;;;;;-142.75;100.00;77212.06;5066466;28;20272;-66
2022/11/06 02:45:57;;;;;;;7.57;2.53;;;;;;;-142.75;100.00;77204.19;5086024;28;20582;-61
2022/11/06 02:48:29;;;;;;;6.78;2.75;;;;;;;-142.75;100.00;77194.34;5064167;28;20024;-63
2022/11/06 02:50:57;;;;;;;7.90;2.85;;;;;;;-142.75;100.00;77196.31;5087546;28;20058;-64
2022/11/06 02:53:25;;;;;;;6.85;2.42;;;;;;;-142.75;100.00;77202.22;5083206;28;20488;-61
2022/11/06 02:55:54;;;;;;;7.72;2.97;;;;;;;-142.75;100.00;77208.13;5066238;28;20035;-62
2022/11/06 02:58:32;;;;;;;4.57;2.58;;;;;;;-142.75;100.00;77204.19;5067638;28;20047;-62
2022/11/06 03:01:13;;;;;;;9.13;3.13;;;;;;;-142.75;100.00;77192.38;5067138;28;20530;-63
2022/11/06 03:03:46;;;;;;;6.53;3.00;;;;;;;-142.75;100.00;77208.13;5069909;28;20083;-61
2022/11/06 03:06:22;;;;;;;5.60;2.58;;;;;;;-142.75;100.00;77200.25;5065353;28;22415;-64
2022/11/06 03:08:53;;;;;;;;;;;;;;;-142.75;100.00;77192.38;5068326;28;20031;-62
2022/11/06 03:11:31;;;;;;;11.18;2.78;;;;;;;-142.75;100.00;77196.31;5066966;28;19927;-63
2022/11/06 03:13:56;;;;;;;18.75;3.08;;;;;;;-142.75;100.00;77180.56;5091059;28;20032;-63
2022/11/06 03:16:32;;;;;;;11.88;3.13;;;;;;;-142.75;100.00;77182.53;5064838;28;20040;-62
2022/11/06 03:19:03;;;;;;;6.45;2.90;;;;;;;-142.75;100.00;77182.53;5091892;28;20027;-63
2022/11/06 03:22:07;;;;;;;8.65;2.90;;;;;;;-142.75;100.00;77198.28;5067899;28;20524;-64
2022/11/06 03:24:41;;;;;;;7.60;2.83;;;;;;;-142.75;100.00;77176.63;5074905;28;20388;-64
2022/11/06 03:27:15;;;;;;;7.40;3.00;;;;;;;-142.75;100.00;77178.59;5087900;28;20363;-63
2022/11/06 03:29:48;;;;;;;5.53;2.45;;;;;;;-142.75;100.00;77184.50;5061040;28;20023;-64
2022/11/06 03:32:39;;;;;;;8.73;3.13;;;;;;;-142.75;100.00;77194.34;5067389;28;20036;-61
2022/11/06 03:35:28;;;;;;;7.70;3.05;;;;;;;-142.75;100.00;77188.44;5085097;28;20159;-62
2022/11/06 03:37:59;;;;;;;9.55;3.55;;;;;;;-142.75;100.00;77200.25;5083812;28;20126;-64
2022/11/06 03:40:28;;;;;;;8.45;3.42;;;;;;;-142.75;100.00;77192.38;5068365;28;20113;-63
2022/11/06 03:42:59;;;;;;;15.13;3.45;;;;;;;-142.75;100.00;77188.44;5061914;28;20058;-63
2022/11/06 03:45:26;;;;;;;8.38;2.83;;;;;;;-142.75;100.00;77182.53;5073000;28;20039;-64
2022/11/06 03:48:18;;;;;;;8.20;2.95;;;;;;;-142.75;100.00;77174.66;5068578;28;20037;-66
2022/11/06 03:50:50;;;;;;;14.65;3.17;;;;;;;-142.75;100.00;77176.63;5066668;28;20027;-64
2022/11/06 03:53:30;;;;;;;5.68;2.78;;;;;;;-142.75;100.00;77164.81;5083579;28;20809;-61
2022/11/06 03:56:06;;;;;;;8.52;2.83;;;;;;;-142.75;100.00;77172.69;5067469;28;20386;-62
2022/11/06 03:58:37;;;;;;;7.13;3.17;;;;;;;-142.75;100.00;77154.97;5086734;28;20028;-63
2022/11/06 04:01:06;;;;;;;9.20;2.90;;;;;;;-142.75;100.00;77149.06;5089453;28;20032;-64
2022/11/06 04:03:36;;;;;;;8.98;3.05;;;;;;;-142.75;100.00;77145.13;5082716;28;20210;-63
2022/11/06 04:06:12;;;;;;;10.10;3.25;;;;;;;-142.75;100.00;77141.19;5092099;28;20562;-63
2022/11/06 04:14:14;;;;;;;7.15;3.05;;;;;;;-142.75;100.00;77125.44;5084783;28;20128;-62
2022/11/06 04:16:48;;;;;;;5.35;2.80;;;;;;;-142.75;100.00;77143.16;5064568;28;20576;-65
2022/11/06 04:19:21;;;;;;;9.27;3.28;;;;;;;-142.75;100.00;77127.41;5063395;28;20393;-64
2022/11/06 04:22:18;;;;;;;7.25;2.90;;;;;;;-142.75;100.00;77121.50;5070545;28;20034;-64
2022/11/06 04:28:21;;;;;;;8.30;3.30;;;;;;;-142.75;100.00;77131.34;5053803;28;20749;-64
2022/11/06 04:30:55;;;;;;;10.00;3.83;;;;;;;-142.75;100.00;77125.44;5070269;28;20036;-65
2022/11/06 04:33:35;;;;;;;11.73;3.80;;;;;;;-142.75;100.00;77127.41;5081223;28;20031;-63
2022/11/06 04:36:24;;;;;;;13.13;3.25;;;;;;;-142.75;100.00;77133.31;5065092;28;20831;-64
2022/11/06 04:39:21;;;;;;;13.25;3.42;;;;;;;-142.75;100.00;77129.38;5066323;28;20036;-64
2022/11/06 04:41:52;;;;;;;10.27;3.60;;;;;;;-142.75;100.00;77113.63;5046266;28;20370;-63
2022/11/06 04:44:28;;;;;;;10.68;3.38;;;;;;;-142.75;100.00;77113.63;5071037;28;20031;-63
2022/11/06 04:46:58;;;;;;;7.95;3.38;;;;;;;-142.75;100.00;77113.63;5082357;28;20035;-63
2022/11/06 04:49:28;;;;;;;13.50;3.47;;;;;;;-142.75;100.00;77105.75;5066526;28;20139;-62
2022/11/06 04:51:54;;;;;;;9.68;3.00;;;;;;;-142.75;100.00;77109.69;5084482;28;20038;-62
2022/11/06 04:54:21;;;;;;;10.38;2.63;;;;;;;-142.75;100.00;77123.47;5064699;28;20028;-64
2022/11/06 04:56:47;;;;;;;10.73;3.65;;;;;;;-142.75;100.00;77127.41;5081545;28;20033;-65
2022/11/06 04:59:15;;;;;;;10.18;3.47;;;;;;;-142.75;100.00;77129.38;5068000;28;20031;-66
2022/11/06 05:01:40;;;;;;;5.60;2.47;;;;;;;-142.75;100.00;77139.22;5083306;28;20043;-65
2022/11/06 05:04:05;;;;;;;7.70;2.70;;;;;;;-142.75;100.00;77133.31;5066829;28;20028;-66
2022/11/06 05:06:31;;;;;;;8.60;2.47;;;;;;;-142.75;100.00;77127.41;5070488;28;20035;-61
2022/11/06 05:08:57;;;;;;;6.85;2.75;;;;;;;-142.75;100.00;77133.31;5065310;28;20028;-62
2022/11/06 05:11:23;;;;;;;10.95;3.63;;;;;;;-142.75;100.00;77133.31;5065634;28;20063;-63
2022/11/06 05:13:48;;;;;;;6.82;2.42;;;;;;;-142.75;100.00;77137.25;5073780;28;20083;-65
2022/11/06 05:16:14;;;;;;;7.35;3.00;;;;;;;-142.75;100.00;77137.25;5085342;28;20023;-63
2022/11/06 05:18:39;;;;;;;5.60;2.53;;;;;;;-142.75;100.00;77141.19;5067635;28;20525;-62
2022/11/06 05:23:49;;;;;;;10.27;2.88;;;;;;;-142.75;100.00;77135.28;5086778;28;20088;-63
2022/11/06 05:26:14;;;;;;;7.25;2.30;;;;;;;-142.75;100.00;77143.16;5069211;28;20043;-62
2022/11/06 05:28:39;;;;;;;13.65;3.08;;;;;;;-142.75;100.00;77139.22;5062496;28;20032;-62
2022/11/06 05:31:05;;;;;;;8.52;3.35;;;;;;;-142.75;100.00;77139.22;5067592;28;20099;-62
2022/11/06 05:33:31;;;;;;;6.70;2.55;;;;;;;-142.75;100.00;77145.13;5068467;28;20126;-64
2022/11/06 05:36:01;;;;;;;6.32;2.40;;;;;;;-142.75;100.00;77129.38;5064408;28;20110;-65
2022/11/06 05:38:27;;;;;;;10.77;3.08;;;;;;;-142.75;100.00;77149.06;5064236;28;20630;-64
2022/11/06 05:40:52;;;;;;;8.18;2.55;;;;;;;-142.75;100.00;77153.00;5069098;28;20028;-63
2022/11/06 05:43:17;;;;;;;9.73;2.67;;;;;;;-142.75;100.00;77129.38;5068893;28;20604;-61
2022/11/06 05:45:43;;;;;;;8.65;2.70;;;;;;;-142.75;100.00;77135.28;5061092;28;20462;-62
2022/11/06 05:48:08;;;;;;;10.10;2.90;;;;;;;-142.75;100.00;77127.41;5090390;28;20524;-62
2022/11/06 05:50:33;;;;;;;17.20;3.47;;;;;;;-142.75;100.00;77141.19;5090750;28;20187;-64
2022/11/06 05:52:59;;;;;;;9.60;2.97;;;;;;;-142.75;100.00;77135.28;5084796;28;20032;-61
2022/11/06 05:55:25;;;;;;;7.63;2.53;;;;;;;-142.75;100.00;77145.13;5071004;28;20489;-64
2022/11/06 05:57:50;;;;;;;9.88;2.95;;;;;;;-142.75;100.00;77141.19;5086000;28;20046;-62
2022/11/06 06:00:15;;;;;;;8.50;2.42;;;;;;;-142.75;100.00;77141.19;5069251;28;20251;-64
2022/11/06 06:02:41;;;;;;;8.35;2.42;;;;;;;-142.75;100.00;77141.19;5068277;28;20042;-64
2022/11/06 06:05:07;;;;;;;6.32;2.35;;;;;;;-142.75;100.00;77141.19;5087268;28;20081;-65
2022/11/06 06:07:33;;;;;;;7.70;2.53;;;;;;;-142.75;100.00;77137.25;5079230;22;20464;-66
2022/11/06 06:09:59;;;;;;;;;;;;;;;-142.75;100.00;77139.22;5076643;28;20016;-65
2022/11/06 06:12:25;;;;;;;7.57;2.22;;;;;;;-142.75;100.00;77143.16;5076202;28;19923;-67
2022/11/06 06:14:50;;;;;;;;;;;;;;;-142.75;100.00;77125.44;5076318;28;20024;-68
2022/11/06 06:17:16;;;;;;;11.15;2.60;;;;;;;-142.75;100.00;77139.22;5075268;28;19943;-68
2022/11/06 06:19:41;;;;;;;12.35;2.60;;;;;;;-142.75;100.00;77141.19;5075868;28;20587;-66
2022/11/06 06:22:07;;;;;;;10.13;2.50;;;;;;;-142.75;100.00;77125.44;5077032;28;20817;-69
2022/11/06 06:24:32;;;;;;;8.27;2.22;;;;;;;-142.75;100.00;77125.44;5079980;28;20031;-66
2022/11/06 06:26:57;;;;;;;4.93;2.80;;;;;;;-142.75;100.00;77123.47;5060318;28;20024;-66
2022/11/06 06:29:23;;;;;;;8.38;2.60;;;;;;;-142.75;100.00;77121.50;5061795;28;20481;-69
2022/11/06 06:31:48;;;;;;;13.57;2.60;;;;;;;-142.75;100.00;77119.53;5061241;28;20032;-68
2022/11/06 06:34:14;;;;;;;5.88;2.30;;;;;;;-142.75;100.00;77097.88;5079540;28;20342;-68
2022/11/06 06:36:39;;;;;;;10.63;2.63;;;;;;;-142.75;100.00;77111.66;5078979;28;20035;-69
2022/11/06 06:39:05;;;;;;;6.70;1.80;;;;;;;-142.75;100.00;77093.94;5079284;28;20028;-67
2022/11/06 06:41:31;;;;;;;8.32;2.55;;;;;;;-142.75;100.00;77084.09;5079627;28;20030;-68
2022/11/06 06:43:56;;;;;;;7.97;3.17;;;;;;;-142.75;100.00;77088.03;5079145;28;20200;-68
2022/11/06 06:46:21;;;;;;;8.57;1.92;;;;;;;-142.75;100.00;77058.50;5079182;28;20378;-68
2022/11/06 06:48:46;;;;;;;8.85;2.38;;;;;;;-142.75;100.00;77050.63;5079059;28;20020;-69
2022/11/06 06:51:12;;;;;;;9.15;2.17;;;;;;;-142.75;100.00;77050.63;5078827;28;20798;-69
2022/11/06 06:53:37;;;;;;;9.30;2.13;;;;;;;-142.75;100.00;77046.69;5079085;28;20055;-69
2022/11/06 06:56:03;;;;;;;6.80;1.73;;;;;;;-142.75;100.00;77040.78;5060794;28;20343;-68
2022/11/06 06:58:29;;;;;;;7.07;2.42;;;;;;;-142.75;100.00;77042.75;5078534;28;20036;-69
2022/11/06 07:00:58;;;;;;;12.73;4.00;;;;;;;-142.75;100.00;77028.97;5078697;28;20019;-69
2022/11/06 07:03:23;;;;;;;9.85;2.55;;;;;;;-142.75;100.00;77027.00;5079154;28;20585;-70
2022/11/06 07:05:48;;;;;;;6.07;2.28;;;;;;;-142.75;100.00;77023.06;5078961;28;20027;-69
2022/11/06 07:08:14;;;;;;;12.10;2.35;;;;;;;-142.75;100.00;77038.81;5077646;28;20016;-70
2022/11/06 07:10:39;;;;;;;14.13;2.63;;;;;;;-142.75;100.00;77025.03;5079127;28;20028;-70
2022/11/06 07:13:05;;;;;;;10.10;2.22;;;;;;;-142.75;100.00;77030.94;5078307;28;20032;-68
2022/11/06 07:15:31;;;;;;;11.65;1.98;;;;;;;-142.75;100.00;77027.00;5061081;28;20028;-69
2022/11/06 07:18:04;;;;;;;5.45;1.40;;;;;;;-142.75;100.00;77021.09;5078308;28;20755;-70
2022/11/06 07:20:30;;;;;;;4.57;1.60;;;;;;;-142.75;100.00;77028.97;5078711;28;20031;-69
2022/11/06 07:22:55;;;;;;;;;;;;;;;-142.75;100.00;77019.13;5078865;28;20909;-69
2022/11/06 07:25:21;;;;;;;4.97;1.67;;;;;;;-142.75;100.00;77011.25;5078272;28;19920;-70
2022/11/06 07:27:46;;;;;;;8.45;2.05;;;;;;;-142.75;100.00;77027.00;5077602;28;20031;-66
2022/11/06 07:30:11;;;;;;;4.10;1.60;;;;;;;-142.75;100.00;77034.88;5078261;28;20082;-69
2022/11/06 07:32:37;;;;;;;4.55;1.40;;;;;;;-142.75;100.00;77028.97;5078227;28;20496;-67
2022/11/06 07:35:02;;;;;;;4.10;1.57;;;;;;;-142.75;100.00;77021.09;5078304;28;20032;-66
2022/11/06 07:37:28;;;;;;;10.77;1.92;;;;;;;-142.75;100.00;77015.19;5077459;28;20767;-69
2022/11/06 07:39:53;;;;;;;6.30;1.45;;;;;;;-142.75;100.00;77007.31;5078351;28;20019;-69
2022/11/06 07:42:18;;;;;;;9.82;2.53;;;;;;;-142.75;100.00;77003.38;5079013;28;20055;-70
2022/11/06 07:44:43;;;;;;;5.55;1.95;;;;;;;-142.75;100.00;76991.56;5078758;28;20377;-68
2022/11/06 07:47:09;;;;;;;7.60;2.13;;;;;;;-142.75;100.00;76975.81;5078037;28;20027;-69
2022/11/06 07:49:35;;;;;;;6.75;2.15;;;;;;;-142.75;100.00;76971.88;5078952;28;20360;-67
2022/11/06 07:52:00;;;;;;;6.22;2.20;;;;;;;-142.75;100.00;76956.13;5078316;28;20353;-66
2022/11/06 07:54:26;;;;;;;8.43;2.05;;;;;;;-142.75;100.00;76932.50;5078714;28;20027;-68
2022/11/06 07:56:51;;;;;;;4.40;1.58;;;;;;;-142.75;100.00;76901.00;5077582;28;20024;-68
2022/11/06 07:59:16;;;;;;;5.30;1.75;;;;;;;-142.75;100.00;76916.75;5078489;28;20219;-69
2022/11/06 08:01:42;;;;;;;7.10;1.67;;;;;;;-142.75;100.00;76910.84;5077657;28;20024;-69
2022/11/06 08:04:07;;;;;;;5.15;1.42;;;;;;;-142.75;100.00;76875.41;5077685;28;20540;-67
2022/11/06 08:06:33;;;;;;;12.55;5.32;;;;;;;-142.75;100.00;76881.31;5077353;28;20361;-68
2022/11/06 08:08:58;;;;;;;4.28;2.00;;;;;;;-142.75;100.00;76904.94;5077039;28;20065;-68
2022/11/06 08:11:23;;;;;;;6.65;1.70;;;;;;;-142.75;100.00;76910.84;5078016;28;20504;-68
2022/11/06 08:13:49;;;;;;;6.20;1.67;;;;;;;-142.75;100.00;76891.16;5077442;28;20410;-68
2022/11/06 08:16:14;;;;;;;7.20;1.63;;;;;;;-142.75;100.00;76885.25;5077593;28;20031;-69
2022/11/06 08:18:40;;;;;;;4.47;1.60;;;;;;;-142.75;100.00;76867.53;5077524;28;20097;-69
2022/11/06 08:21:06;;;;;;;6.93;1.65;;;;;;;-142.75;100.00;76865.56;5077092;28;20537;-68
2022/11/06 08:23:32;;;;;;;7.18;1.90;;;;;;;-142.75;100.00;76851.78;5077394;28;20032;-68
2022/11/06 08:26:00;;;;;;;10.18;1.67;;;;;;;-142.75;100.00;76857.69;5076808;28;20384;-67
2022/11/06 08:28:26;;;;;;;4.55;1.25;;;;;;;-142.75;100.00;76877.38;5076610;28;20027;-68
2022/11/06 08:30:53;;;;;;;6.25;1.98;;;;;;;-142.75;100.00;76891.16;5077495;28;20048;-68
2022/11/06 08:33:20;;;;;;;7.97;1.55;;;;;;;-142.75;100.00;76918.72;5077248;28;20036;-68
2022/11/06 08:35:45;;;;;;;8.23;1.80;;;;;;;-142.75;100.00;76952.19;5077206;28;20101;-65
2022/11/06 08:38:11;;;;;;;11.55;1.88;;;;;;;-142.75;100.00;76965.97;5076231;28;20484;-66
2022/11/06 08:40:38;;;;;;;10.57;2.42;;;;;;;-142.75;100.00;76989.59;5077294;28;20036;-67
2022/11/06 08:43:07;;;;;;;5.72;1.98;;;;;;;-142.75;100.00;76995.50;5076770;28;20521;-67
2022/11/06 08:45:39;;;;;;;5.35;2.00;;;;;;;-142.75;100.00;76999.44;5076889;28;22052;-67
2022/11/06 08:48:06;;;;;;;7.95;1.95;;;;;;;-142.75;100.00;77005.34;5076493;28;20019;-67
2022/11/06 08:50:33;;;;;;;10.55;1.83;;;;;;;-142.75;100.00;76987.63;5076679;28;20024;-67
2022/11/06 08:53:02;;;;;;;9.60;2.60;;;;;;;-142.75;100.00;76975.81;5076907;28;20089;-67
2022/11/06 08:55:32;;;;;;;6.85;1.85;;;;;;;-142.75;100.00;76960.06;5076978;28;20024;-68
2022/11/06 08:57:58;;;;;;;5.28;2.03;;;;;;;-142.75;100.00;76946.28;5075674;28;20075;-67
2022/11/06 09:00:23;;;;;;;5.57;1.80;;;;;;;-142.75;100.00;76928.56;5076971;28;20615;-69
2022/11/06 09:02:49;;;;;;;5.03;2.05;;;;;;;-142.75;100.00;76924.63;5076948;28;20083;-69
2022/11/06 09:05:14;;;;;;;8.68;1.88;;;;;;;-142.75;100.00;76926.59;5076603;28;20752;-68
2022/11/06 09:07:40;;;;;;;5.78;1.88;;;;;;;-142.75;100.00;76912.81;5075816;28;20032;-68
2022/11/06 09:10:05;;;;;;;8.00;1.85;;;;;;;-142.75;100.00;76901.00;5076185;28;20032;-68
2022/11/06 09:12:31;;;;;;;8.82;2.45;;;;;;;-142.75;100.00;76891.16;5059068;28;20370;-67
2022/11/06 09:14:56;;;;;;;5.97;2.08;;;;;;;-142.75;100.00;76885.25;5076633;28;20027;-69
2022/11/06 09:17:23;;;;;;;8.30;2.30;;;;;;;-142.75;100.00;76877.38;5076108;28;20552;-68
2022/11/06 09:19:51;;;;;;;13.82;2.20;;;;;;;-142.75;100.00;76873.44;5076155;28;20024;-68
2022/11/06 09:22:17;;;;;;;5.68;1.65;;;;;;;-142.75;100.00;76853.75;5075786;28;20035;-69
2022/11/06 09:24:43;;;;;;;6.43;1.63;;;;;;;-142.75;100.00;76845.88;5075439;28;20024;-67
2022/11/06 09:27:08;;;;;;;8.05;1.60;;;;;;;-142.75;100.00;76851.78;5074891;28;20031;-69
2022/11/06 09:29:33;;;;;;;5.97;1.55;;;;;;;-142.75;100.00;76839.97;5076118;28;20048;-67
2022/11/06 09:31:59;;;;;;;5.68;1.90;;;;;;;-142.75;100.00;76822.25;5075524;28;20055;-68
2022/11/06 09:34:24;;;;;;;5.35;1.88;;;;;;;-142.75;100.00;76812.41;5075745;28;20024;-68
2022/11/06 09:36:49;;;;;;;3.67;1.60;;;;;;;-142.75;100.00;76810.44;5056680;28;20053;-67
2022/11/06 09:39:15;;;;;;;5.45;1.83;;;;;;;-142.75;100.00;76802.56;5075629;28;20021;-68
2022/11/06 09:42:00;;;;;;;4.78;1.67;;;;;;;-142.75;100.00;76798.66;5076181;28;20040;-66
2022/11/06 09:44:28;;;;;;;4.07;1.45;;;;;;;-142.75;100.00;76810.44;5075966;28;20027;-68
2022/11/06 09:46:56;;;;;;;8.55;1.33;;;;;;;-142.75;100.00;76802.56;5074729;28;20016;-68
2022/11/06 09:49:37;;;;;;;7.93;1.90;;;;;;;-142.75;100.00;76798.66;5076297;28;20039;-67
2022/11/06 09:52:35;;;;;;;4.80;1.40;;;;;;;-142.75;100.00;76777.00;5057322;28;20035;-67
2022/11/06 09:55:12;;;;;;;3.53;1.50;;;;;;;-142.75;100.00;76763.22;5062100;28;20104;-67
2022/11/06 09:57:50;;;;;;;5.13;1.50;;;;;;;-142.75;100.00;76759.28;5076919;28;20051;-69
2022/11/06 10:00:17;;;;;;;8.73;1.75;;;;;;;-142.75;100.00;76755.34;5079653;28;20031;-66
2022/11/06 10:02:59;;;;;;;;;;;;;;;-142.75;100.00;76745.50;5080125;28;20020;-67
2022/11/06 10:05:32;;;;;;;14.05;1.95;;;;;;;-142.75;100.00;76751.41;5079759;28;19918;-68
2022/11/06 10:08:05;;;;;;;9.05;1.77;;;;;;;-142.75;100.00;76733.69;5059934;28;20020;-68
2022/11/06 10:10:37;;;;;;;14.48;3.20;;;;;;;-142.75;100.00;76727.78;5079595;28;20020;-69
2022/11/06 10:13:14;;;;;;;9.45;2.83;;;;;;;-142.75;100.00;76723.84;5078837;28;20073;-66
2022/11/06 10:15:52;;;;;;;4.57;1.48;;;;;;;-142.75;100.00;76715.97;5079630;28;20032;-66
2022/11/06 10:18:26;;;;;;;4.82;1.63;;;;;;;-142.75;100.00;76704.16;5079375;28;20074;-68
2022/11/06 10:21:01;;;;;;;6.75;1.10;;;;;;;-142.75;100.00;76688.41;5061072;28;20036;-69
2022/11/06 10:23:38;;;;;;;8.30;1.33;;;;;;;-142.75;100.00;76696.28;5079956;28;20023;-68
2022/11/06 10:26:18;;;;;;;3.97;1.08;;;;;;;-142.75;100.00;76678.56;5061097;28;20024;-68
2022/11/06 10:29:21;;;;;;;7.22;0.98;;;;;;;-142.75;100.00;76668.72;5078634;28;20032;-67
2022/11/06 10:32:30;;;;;;;3.50;1.10;;;;;;;-142.75;100.00;76672.66;5047605;28;20047;-69
2022/11/06 10:35:05;;;;;;;4.20;1.23;;;;;;;-142.75;100.00;76654.94;5016252;28;20030;-69
2022/11/06 10:37:49;;;;;;;7.30;1.30;;;;;;;-142.75;100.00;76664.78;5069318;28;20028;-66
2022/11/06 10:40:18;;;;;;;7.90;2.70;;;;;;;-142.75;100.00;76654.94;5079466;28;20088;-69
2022/11/06 10:42:50;;;;;;;7.13;2.10;;;;;;;-142.75;100.00;76658.88;5079113;28;20016;-66
2022/11/06 10:45:17;;;;;;;10.95;2.95;;;;;;;-142.75;100.00;76645.09;5060955;28;20389;-68
2022/11/06 10:47:49;;;;;;;4.68;1.20;;;;;;;-142.75;100.00;76645.09;5061132;28;20032;-69
2022/11/06 10:50:16;;;;;;;6.85;1.20;;;;;;;-142.75;100.00;76639.19;5079570;28;20028;-66
2022/11/06 10:52:49;;;;;;;11.32;2.05;;;;;;;-142.75;100.00;76621.47;5061331;28;20035;-68
2022/11/06 10:55:44;;;;;;;6.25;2.00;;;;;;;-142.75;100.00;76639.19;5078810;28;20143;-66
2022/11/06 10:58:20;;;;;;;6.28;1.40;;;;;;;-142.75;100.00;76623.44;5078460;28;20027;-65
2022/11/06 11:00:45;;;;;;;4.45;1.27;;;;;;;-142.75;100.00;76645.09;5078939;28;20016;-67
2022/11/06 11:03:22;;;;;;;2.80;1.17;;;;;;;-142.75;100.00;76645.09;5078750;28;20036;-67
2022/11/06 11:05:47;;;;;;;4.38;1.15;;;;;;;-142.75;100.00;76651.00;5078723;28;20023;-68
2022/11/06 11:08:32;;;;;;;6.70;1.17;;;;;;;-142.75;100.00;76660.84;5077262;28;20729;-67
2022/11/06 11:11:01;;;;;;;8.70;1.35;;;;;;;-142.75;100.00;76672.66;5078623;28;20035;-68
2022/11/06 11:13:26;;;;;;;5.32;1.08;;;;;;;-142.75;100.00;76684.47;5079071;28;20035;-69
2022/11/06 11:15:52;;;;;;;6.00;1.60;;;;;;;-142.75;100.00;76686.44;5078855;28;20036;-67
2022/11/06 11:18:22;;;;;;;8.02;1.33;;;;;;;-142.75;100.00;76684.47;5078447;28;20574;-66
2022/11/06 11:20:50;;;;;;;6.07;1.25;;;;;;;-142.75;100.00;76674.63;5060902;28;20902;-68
2022/11/06 11:23:21;;;;;;;5.47;1.70;;;;;;;-142.75;100.00;76676.59;5078324;28;20081;-69
2022/11/06 11:25:49;;;;;;;4.70;1.48;;;;;;;-142.75;100.00;76672.66;5078482;28;20346;-68
2022/11/06 11:28:35;;;;;;;8.10;1.25;;;;;;;-142.75;100.00;76670.69;5077659;28;20028;-69
2022/11/06 11:31:13;;;;;;;13.20;2.03;;;;;;;-142.75;100.00;76682.50;5075015;28;20024;-67
2022/11/06 11:33:40;;;;;;;6.60;1.52;;;;;;;-142.75;100.00;76704.16;5078467;28;20035;-67
2022/11/06 11:36:08;;;;;;;6.65;2.25;;;;;;;-142.75;100.00;76725.81;5059461;28;20059;-68